sensor_id;sensor_type;location;lat;lon;timestamp;P1;durP1;ratioP1;P2;durP2;ratioP2
34711;SDS011;20941;42.408;25.634;2023-03-31T00:01:32;5.97;;;3.45;;
34711;SDS011;20941;42.408;25.634;2023-03-31T00:03:58;6.47;;;3.95;;
34711;SDS011;20941;42.408;25.634;2023-03-31T00:06:30;6.88;;;3.88;;
34711;SDS011;20941;42.408;25.634;2023-03-31T00:08:56;7.03;;;3.83;;
34711;SDS011;20941;42.408;25.634;2023-03-31T00:11:26;5.25;;;3.40;;
34711;SDS011;20941;42.408;25.634;2023-03-31T00:13:51;7.50;;;3.90;;
34711;SDS011;20941;42.408;25.634;2023-03-31T00:16:17;7.40;;;3.95;;
34711;SDS011;20941;42.408;25.634;2023-03-31T00:18:42;6.20;;;3.63;;
34711;SDS011;20941;42.408;25.634;2023-03-31T00:21:15;5.10;;;3.78;;
34711;SDS011;20941;42.408;25.634;2023-03-31T00:23:54;5.45;;;3.90;;
34711;SDS011;20941;42.408;25.634;2023-03-31T00:26:20;8.23;;;4.53;;
34711;SDS011;20941;42.408;25.634;2023-03-31T00:28:47;7.28;;;4.25;;
34711;SDS011;20941;42.408;25.634;2023-03-31T00:31:12;11.40;;;5.00;;
34711;SDS011;20941;42.408;25.634;2023-03-31T00:33:38;9.98;;;5.30;;
34711;SDS011;20941;42.408;25.634;2023-03-31T00:36:03;9.65;;;5.20;;
34711;SDS011;20941;42.408;25.634;2023-03-31T00:38:30;12.95;;;5.85;;
34711;SDS011;20941;42.408;25.634;2023-03-31T00:40:55;10.80;;;5.18;;
34711;SDS011;20941;42.408;25.634;2023-03-31T00:43:31;9.75;;;3.75;;
34711;SDS011;20941;42.408;25.634;2023-03-31T00:46:04;5.40;;;3.25;;
34711;SDS011;20941;42.408;25.634;2023-03-31T00:48:31;9.20;;;3.80;;
34711;SDS011;20941;42.408;25.634;2023-03-31T00:50:57;6.68;;;3.30;;
34711;SDS011;20941;42.408;25.634;2023-03-31T00:53:24;4.88;;;3.58;;
34711;SDS011;20941;42.408;25.634;2023-03-31T00:55:52;5.28;;;3.30;;
34711;SDS011;20941;42.408;25.634;2023-03-31T00:58:18;4.30;;;3.58;;
34711;SDS011;20941;42.408;25.634;2023-03-31T01:00:45;5.72;;;3.10;;
34711;SDS011;20941;42.408;25.634;2023-03-31T01:03:12;6.95;;;3.50;;
34711;SDS011;20941;42.408;25.634;2023-03-31T01:05:44;6.53;;;2.92;;
34711;SDS011;20941;42.408;25.634;2023-03-31T01:08:11;6.40;;;3.22;;
34711;SDS011;20941;42.408;25.634;2023-03-31T01:10:43;7.32;;;4.13;;
34711;SDS011;20941;42.408;25.634;2023-03-31T01:13:09;11.30;;;4.90;;
34711;SDS011;20941;42.408;25.634;2023-03-31T01:15:38;6.80;;;3.92;;
34711;SDS011;20941;42.408;25.634;2023-03-31T01:18:04;7.22;;;3.78;;
34711;SDS011;20941;42.408;25.634;2023-03-31T01:23:17;5.57;;;3.30;;
34711;SDS011;20941;42.408;25.634;2023-03-31T01:44:53;5.20;;;2.72;;
34711;SDS011;20941;42.408;25.634;2023-03-31T01:50:13;6.05;;;3.38;;
34711;SDS011;20941;42.408;25.634;2023-03-31T01:52:46;7.03;;;3.20;;
34711;SDS011;20941;42.408;25.634;2023-03-31T01:55:21;9.45;;;3.13;;
34711;SDS011;20941;42.408;25.634;2023-03-31T01:57:55;6.65;;;3.33;;
34711;SDS011;20941;42.408;25.634;2023-03-31T02:00:23;7.07;;;3.30;;
34711;SDS011;20941;42.408;25.634;2023-03-31T02:02:56;6.82;;;3.78;;
34711;SDS011;20941;42.408;25.634;2023-03-31T02:05:25;6.90;;;3.90;;
34711;SDS011;20941;42.408;25.634;2023-03-31T02:07:52;8.23;;;3.70;;
34711;SDS011;20941;42.408;25.634;2023-03-31T02:10:19;9.85;;;5.05;;
34711;SDS011;20941;42.408;25.634;2023-03-31T02:12:45;13.55;;;5.93;;
34711;SDS011;20941;42.408;25.634;2023-03-31T02:15:13;8.32;;;4.57;;
34711;SDS011;20941;42.408;25.634;2023-03-31T02:17:40;6.10;;;3.95;;
34711;SDS011;20941;42.408;25.634;2023-03-31T02:20:10;7.03;;;3.90;;
34711;SDS011;20941;42.408;25.634;2023-03-31T02:22:38;7.50;;;4.07;;
34711;SDS011;20941;42.408;25.634;2023-03-31T02:25:07;8.52;;;3.88;;
34711;SDS011;20941;42.408;25.634;2023-03-31T02:27:36;6.32;;;4.00;;
34711;SDS011;20941;42.408;25.634;2023-03-31T02:30:04;10.38;;;4.90;;
34711;SDS011;20941;42.408;25.634;2023-03-31T02:32:31;14.65;;;5.85;;
34711;SDS011;20941;42.408;25.634;2023-03-31T02:34:58;10.15;;;4.30;;
34711;SDS011;20941;42.408;25.634;2023-03-31T02:37:25;7.85;;;4.55;;
34711;SDS011;20941;42.408;25.634;2023-03-31T02:39:51;9.68;;;4.28;;
34711;SDS011;20941;42.408;25.634;2023-03-31T02:42:18;15.50;;;4.50;;
34711;SDS011;20941;42.408;25.634;2023-03-31T02:44:44;18.02;;;4.55;;
34711;SDS011;20941;42.408;25.634;2023-03-31T02:47:13;6.13;;;3.67;;
34711;SDS011;20941;42.408;25.634;2023-03-31T02:49:40;6.38;;;3.70;;
34711;SDS011;20941;42.408;25.634;2023-03-31T03:09:45;9.63;;;3.88;;
34711;SDS011;20941;42.408;25.634;2023-03-31T03:12:16;7.90;;;4.15;;
34711;SDS011;20941;42.408;25.634;2023-03-31T03:17:26;9.40;;;3.67;;
34711;SDS011;20941;42.408;25.634;2023-03-31T03:19:53;5.43;;;3.85;;
34711;SDS011;20941;42.408;25.634;2023-03-31T03:22:19;17.10;;;4.57;;
34711;SDS011;20941;42.408;25.634;2023-03-31T03:24:45;12.25;;;4.20;;
34711;SDS011;20941;42.408;25.634;2023-03-31T03:27:10;21.80;;;5.10;;
34711;SDS011;20941;42.408;25.634;2023-03-31T03:29:35;16.05;;;4.22;;
34711;SDS011;20941;42.408;25.634;2023-03-31T03:32:01;10.52;;;4.70;;
34711;SDS011;20941;42.408;25.634;2023-03-31T03:34:26;10.00;;;4.28;;
34711;SDS011;20941;42.408;25.634;2023-03-31T03:36:51;13.38;;;4.47;;
34711;SDS011;20941;42.408;25.634;2023-03-31T03:39:17;9.93;;;4.53;;
34711;SDS011;20941;42.408;25.634;2023-03-31T03:41:42;8.00;;;4.57;;
34711;SDS011;20941;42.408;25.634;2023-03-31T03:44:07;8.93;;;5.00;;
34711;SDS011;20941;42.408;25.634;2023-03-31T03:46:33;7.95;;;4.57;;
34711;SDS011;20941;42.408;25.634;2023-03-31T03:48:58;10.20;;;4.47;;
34711;SDS011;20941;42.408;25.634;2023-03-31T03:51:23;7.38;;;4.72;;
34711;SDS011;20941;42.408;25.634;2023-03-31T03:53:49;12.70;;;4.47;;
34711;SDS011;20941;42.408;25.634;2023-03-31T03:56:14;9.95;;;4.43;;
34711;SDS011;20941;42.408;25.634;2023-03-31T03:58:39;9.65;;;4.28;;
34711;SDS011;20941;42.408;25.634;2023-03-31T04:01:05;11.63;;;6.00;;
34711;SDS011;20941;42.408;25.634;2023-03-31T04:03:30;7.72;;;5.40;;
34711;SDS011;20941;42.408;25.634;2023-03-31T04:05:56;10.88;;;5.18;;
34711;SDS011;20941;42.408;25.634;2023-03-31T04:08:21;11.77;;;6.05;;
34711;SDS011;20941;42.408;25.634;2023-03-31T04:10:47;12.05;;;6.75;;
34711;SDS011;20941;42.408;25.634;2023-03-31T04:13:16;14.80;;;6.13;;
34711;SDS011;20941;42.408;25.634;2023-03-31T04:15:42;16.02;;;6.47;;
34711;SDS011;20941;42.408;25.634;2023-03-31T04:18:07;17.85;;;6.05;;
34711;SDS011;20941;42.408;25.634;2023-03-31T04:20:37;16.38;;;6.40;;
34711;SDS011;20941;42.408;25.634;2023-03-31T04:23:03;16.48;;;6.07;;
34711;SDS011;20941;42.408;25.634;2023-03-31T04:25:30;17.85;;;5.78;;
34711;SDS011;20941;42.408;25.634;2023-03-31T04:27:55;20.83;;;6.50;;
34711;SDS011;20941;42.408;25.634;2023-03-31T04:30:21;31.30;;;7.53;;
34711;SDS011;20941;42.408;25.634;2023-03-31T04:32:48;21.35;;;6.68;;
34711;SDS011;20941;42.408;25.634;2023-03-31T04:35:15;13.73;;;5.28;;
34711;SDS011;20941;42.408;25.634;2023-03-31T04:37:42;12.77;;;5.10;;
34711;SDS011;20941;42.408;25.634;2023-03-31T04:40:07;23.40;;;6.18;;
34711;SDS011;20941;42.408;25.634;2023-03-31T04:42:34;10.95;;;5.18;;
34711;SDS011;20941;42.408;25.634;2023-03-31T04:44:59;27.00;;;6.78;;
34711;SDS011;20941;42.408;25.634;2023-03-31T04:47:25;18.25;;;6.43;;
34711;SDS011;20941;42.408;25.634;2023-03-31T04:49:50;25.15;;;7.88;;
34711;SDS011;20941;42.408;25.634;2023-03-31T04:52:15;23.52;;;9.38;;
34711;SDS011;20941;42.408;25.634;2023-03-31T04:54:41;27.02;;;8.02;;
34711;SDS011;20941;42.408;25.634;2023-03-31T04:57:06;18.77;;;7.40;;
34711;SDS011;20941;42.408;25.634;2023-03-31T04:59:31;24.35;;;9.55;;
34711;SDS011;20941;42.408;25.634;2023-03-31T05:01:57;25.42;;;9.00;;
34711;SDS011;20941;42.408;25.634;2023-03-31T05:04:22;22.88;;;9.18;;
34711;SDS011;20941;42.408;25.634;2023-03-31T05:06:47;19.85;;;8.35;;
34711;SDS011;20941;42.408;25.634;2023-03-31T05:09:13;21.38;;;8.48;;
34711;SDS011;20941;42.408;25.634;2023-03-31T05:11:38;21.50;;;8.80;;
34711;SDS011;20941;42.408;25.634;2023-03-31T05:14:04;33.50;;;9.82;;
34711;SDS011;20941;42.408;25.634;2023-03-31T05:16:29;29.20;;;10.27;;
34711;SDS011;20941;42.408;25.634;2023-03-31T05:18:54;19.25;;;8.48;;
34711;SDS011;20941;42.408;25.634;2023-03-31T05:21:20;23.52;;;9.68;;
34711;SDS011;20941;42.408;25.634;2023-03-31T05:23:46;16.13;;;7.28;;
34711;SDS011;20941;42.408;25.634;2023-03-31T05:26:11;20.55;;;8.52;;
34711;SDS011;20941;42.408;25.634;2023-03-31T05:28:37;16.73;;;7.00;;
34711;SDS011;20941;42.408;25.634;2023-03-31T05:31:04;13.00;;;6.40;;
34711;SDS011;20941;42.408;25.634;2023-03-31T05:33:29;23.42;;;6.43;;
34711;SDS011;20941;42.408;25.634;2023-03-31T05:35:55;14.13;;;6.45;;
34711;SDS011;20941;42.408;25.634;2023-03-31T05:38:20;13.50;;;6.43;;
34711;SDS011;20941;42.408;25.634;2023-03-31T05:40:46;21.98;;;7.38;;
34711;SDS011;20941;42.408;25.634;2023-03-31T05:43:12;22.60;;;7.50;;
34711;SDS011;20941;42.408;25.634;2023-03-31T05:45:37;20.70;;;7.07;;
34711;SDS011;20941;42.408;25.634;2023-03-31T05:48:02;13.77;;;5.95;;
34711;SDS011;20941;42.408;25.634;2023-03-31T05:50:28;15.68;;;7.63;;
34711;SDS011;20941;42.408;25.634;2023-03-31T05:52:53;24.13;;;9.98;;
34711;SDS011;20941;42.408;25.634;2023-03-31T05:55:18;19.20;;;7.57;;
34711;SDS011;20941;42.408;25.634;2023-03-31T05:57:44;12.40;;;6.15;;
34711;SDS011;20941;42.408;25.634;2023-03-31T06:00:09;24.27;;;7.80;;
34711;SDS011;20941;42.408;25.634;2023-03-31T06:02:35;20.27;;;7.80;;
34711;SDS011;20941;42.408;25.634;2023-03-31T06:05:00;18.83;;;6.75;;
34711;SDS011;20941;42.408;25.634;2023-03-31T06:07:26;20.83;;;5.95;;
34711;SDS011;20941;42.408;25.634;2023-03-31T06:09:51;12.60;;;5.75;;
34711;SDS011;20941;42.408;25.634;2023-03-31T06:12:17;6.72;;;4.60;;
34711;SDS011;20941;42.408;25.634;2023-03-31T06:14:42;15.10;;;5.03;;
34711;SDS011;20941;42.408;25.634;2023-03-31T06:17:07;10.80;;;5.95;;
34711;SDS011;20941;42.408;25.634;2023-03-31T06:19:33;13.73;;;5.13;;
34711;SDS011;20941;42.408;25.634;2023-03-31T06:21:58;12.38;;;4.88;;
34711;SDS011;20941;42.408;25.634;2023-03-31T06:24:23;15.27;;;5.10;;
34711;SDS011;20941;42.408;25.634;2023-03-31T06:26:49;17.08;;;5.22;;
34711;SDS011;20941;42.408;25.634;2023-03-31T06:29:14;14.35;;;5.03;;
34711;SDS011;20941;42.408;25.634;2023-03-31T06:31:40;11.82;;;5.13;;
34711;SDS011;20941;42.408;25.634;2023-03-31T06:34:05;25.30;;;6.13;;
34711;SDS011;20941;42.408;25.634;2023-03-31T06:36:31;28.45;;;6.65;;
34711;SDS011;20941;42.408;25.634;2023-03-31T06:38:56;16.08;;;5.65;;
34711;SDS011;20941;42.408;25.634;2023-03-31T06:41:21;21.02;;;5.90;;
34711;SDS011;20941;42.408;25.634;2023-03-31T06:43:47;10.65;;;5.18;;
34711;SDS011;20941;42.408;25.634;2023-03-31T06:46:12;11.27;;;4.97;;
34711;SDS011;20941;42.408;25.634;2023-03-31T06:48:37;8.30;;;3.92;;
34711;SDS011;20941;42.408;25.634;2023-03-31T06:51:04;26.15;;;5.38;;
34711;SDS011;20941;42.408;25.634;2023-03-31T06:53:30;18.13;;;5.20;;
34711;SDS011;20941;42.408;25.634;2023-03-31T06:55:55;13.60;;;3.63;;
34711;SDS011;20941;42.408;25.634;2023-03-31T06:58:21;10.25;;;3.50;;
34711;SDS011;20941;42.408;25.634;2023-03-31T07:00:46;12.05;;;4.50;;
34711;SDS011;20941;42.408;25.634;2023-03-31T07:03:12;14.07;;;6.47;;
34711;SDS011;20941;42.408;25.634;2023-03-31T07:05:37;17.40;;;5.80;;
34711;SDS011;20941;42.408;25.634;2023-03-31T07:08:03;18.80;;;6.68;;
34711;SDS011;20941;42.408;25.634;2023-03-31T07:10:30;29.23;;;8.20;;
34711;SDS011;20941;42.408;25.634;2023-03-31T07:12:55;27.80;;;7.47;;
34711;SDS011;20941;42.408;25.634;2023-03-31T07:15:21;24.98;;;6.22;;
34711;SDS011;20941;42.408;25.634;2023-03-31T07:17:46;13.30;;;6.07;;
34711;SDS011;20941;42.408;25.634;2023-03-31T07:20:15;9.38;;;5.05;;
34711;SDS011;20941;42.408;25.634;2023-03-31T07:22:41;19.65;;;6.65;;
34711;SDS011;20941;42.408;25.634;2023-03-31T07:25:07;14.30;;;6.00;;
34711;SDS011;20941;42.408;25.634;2023-03-31T07:27:33;11.23;;;5.10;;
34711;SDS011;20941;42.408;25.634;2023-03-31T07:29:58;13.82;;;5.18;;
34711;SDS011;20941;42.408;25.634;2023-03-31T07:32:23;20.13;;;6.85;;
34711;SDS011;20941;42.408;25.634;2023-03-31T07:34:48;14.73;;;6.63;;
34711;SDS011;20941;42.408;25.634;2023-03-31T07:37:14;19.38;;;7.32;;
34711;SDS011;20941;42.408;25.634;2023-03-31T07:39:40;15.57;;;6.70;;
34711;SDS011;20941;42.408;25.634;2023-03-31T07:42:05;12.10;;;5.45;;
34711;SDS011;20941;42.408;25.634;2023-03-31T07:44:34;10.15;;;5.40;;
34711;SDS011;20941;42.408;25.634;2023-03-31T07:47:00;13.57;;;5.03;;
34711;SDS011;20941;42.408;25.634;2023-03-31T07:49:33;12.70;;;5.45;;
34711;SDS011;20941;42.408;25.634;2023-03-31T07:51:58;21.50;;;7.18;;
34711;SDS011;20941;42.408;25.634;2023-03-31T07:54:24;8.38;;;4.63;;
34711;SDS011;20941;42.408;25.634;2023-03-31T07:56:52;11.70;;;5.00;;
34711;SDS011;20941;42.408;25.634;2023-03-31T07:59:17;16.00;;;4.78;;
34711;SDS011;20941;42.408;25.634;2023-03-31T08:01:43;9.73;;;6.40;;
34711;SDS011;20941;42.408;25.634;2023-03-31T08:04:09;11.90;;;4.53;;
34711;SDS011;20941;42.408;25.634;2023-03-31T08:06:34;8.50;;;5.40;;
34711;SDS011;20941;42.408;25.634;2023-03-31T08:09:00;10.20;;;4.95;;
34711;SDS011;20941;42.408;25.634;2023-03-31T08:11:25;12.43;;;4.38;;
34711;SDS011;20941;42.408;25.634;2023-03-31T08:13:51;14.23;;;4.43;;
34711;SDS011;20941;42.408;25.634;2023-03-31T08:16:16;12.57;;;4.45;;
34711;SDS011;20941;42.408;25.634;2023-03-31T08:18:41;14.95;;;3.90;;
34711;SDS011;20941;42.408;25.634;2023-03-31T08:21:07;30.33;;;5.32;;
34711;SDS011;20941;42.408;25.634;2023-03-31T08:23:34;18.77;;;4.88;;
34711;SDS011;20941;42.408;25.634;2023-03-31T08:26:13;15.68;;;5.32;;
34711;SDS011;20941;42.408;25.634;2023-03-31T08:28:38;19.85;;;6.38;;
34711;SDS011;20941;42.408;25.634;2023-03-31T08:31:04;15.60;;;4.88;;
34711;SDS011;20941;42.408;25.634;2023-03-31T08:33:30;12.30;;;5.07;;
34711;SDS011;20941;42.408;25.634;2023-03-31T08:35:56;11.15;;;5.93;;
34711;SDS011;20941;42.408;25.634;2023-03-31T08:38:21;23.27;;;7.45;;
34711;SDS011;20941;42.408;25.634;2023-03-31T08:40:46;23.23;;;5.85;;
34711;SDS011;20941;42.408;25.634;2023-03-31T08:43:14;11.07;;;3.90;;
34711;SDS011;20941;42.408;25.634;2023-03-31T08:45:41;14.70;;;5.70;;
34711;SDS011;20941;42.408;25.634;2023-03-31T08:48:18;26.40;;;7.60;;
34711;SDS011;20941;42.408;25.634;2023-03-31T08:50:50;21.13;;;6.38;;
34711;SDS011;20941;42.408;25.634;2023-03-31T08:53:24;13.80;;;4.93;;
34711;SDS011;20941;42.408;25.634;2023-03-31T08:55:51;16.73;;;4.78;;
34711;SDS011;20941;42.408;25.634;2023-03-31T09:03:28;12.00;;;3.83;;
34711;SDS011;20941;42.408;25.634;2023-03-31T09:05:57;14.85;;;4.20;;
34711;SDS011;20941;42.408;25.634;2023-03-31T09:08:37;5.38;;;3.40;;
34711;SDS011;20941;42.408;25.634;2023-03-31T09:13:55;10.93;;;4.45;;
34711;SDS011;20941;42.408;25.634;2023-03-31T09:18:52;8.25;;;3.90;;
34711;SDS011;20941;42.408;25.634;2023-03-31T09:21:35;18.60;;;4.50;;
34711;SDS011;20941;42.408;25.634;2023-03-31T09:29:09;8.02;;;3.60;;
34711;SDS011;20941;42.408;25.634;2023-03-31T09:31:37;10.93;;;3.92;;
34711;SDS011;20941;42.408;25.634;2023-03-31T09:34:09;7.32;;;3.53;;
34711;SDS011;20941;42.408;25.634;2023-03-31T09:36:36;8.45;;;3.80;;
34711;SDS011;20941;42.408;25.634;2023-03-31T09:39:01;12.82;;;4.53;;
34711;SDS011;20941;42.408;25.634;2023-03-31T09:41:27;13.38;;;4.32;;
34711;SDS011;20941;42.408;25.634;2023-03-31T09:43:53;5.93;;;3.28;;
34711;SDS011;20941;42.408;25.634;2023-03-31T09:46:21;6.03;;;3.30;;
34711;SDS011;20941;42.408;25.634;2023-03-31T09:48:57;15.30;;;5.00;;
34711;SDS011;20941;42.408;25.634;2023-03-31T09:51:28;11.52;;;4.13;;
34711;SDS011;20941;42.408;25.634;2023-03-31T09:54:01;11.73;;;4.35;;
34711;SDS011;20941;42.408;25.634;2023-03-31T09:56:44;9.13;;;4.25;;
34711;SDS011;20941;42.408;25.634;2023-03-31T09:59:15;12.52;;;3.67;;
34711;SDS011;20941;42.408;25.634;2023-03-31T10:01:41;9.73;;;3.88;;
34711;SDS011;20941;42.408;25.634;2023-03-31T10:04:10;18.38;;;5.88;;
34711;SDS011;20941;42.408;25.634;2023-03-31T10:06:41;5.47;;;3.90;;
34711;SDS011;20941;42.408;25.634;2023-03-31T10:09:06;11.05;;;4.75;;
34711;SDS011;20941;42.408;25.634;2023-03-31T10:11:34;17.75;;;4.63;;
34711;SDS011;20941;42.408;25.634;2023-03-31T10:14:01;10.23;;;3.90;;
34711;SDS011;20941;42.408;25.634;2023-03-31T10:16:31;13.65;;;4.28;;
34711;SDS011;20941;42.408;25.634;2023-03-31T10:19:42;10.45;;;3.97;;
34711;SDS011;20941;42.408;25.634;2023-03-31T10:21:46;11.10;;;3.97;;
34711;SDS011;20941;42.408;25.634;2023-03-31T10:24:18;9.23;;;4.25;;
34711;SDS011;20941;42.408;25.634;2023-03-31T10:26:46;14.10;;;4.43;;
34711;SDS011;20941;42.408;25.634;2023-03-31T10:29:12;18.27;;;7.50;;
34711;SDS011;20941;42.408;25.634;2023-03-31T10:31:41;13.25;;;4.30;;
34711;SDS011;20941;42.408;25.634;2023-03-31T10:34:07;21.30;;;4.75;;
34711;SDS011;20941;42.408;25.634;2023-03-31T10:36:33;9.02;;;3.83;;
34711;SDS011;20941;42.408;25.634;2023-03-31T10:38:59;8.25;;;3.30;;
34711;SDS011;20941;42.408;25.634;2023-03-31T10:41:28;9.25;;;4.32;;
34711;SDS011;20941;42.408;25.634;2023-03-31T10:43:57;4.05;;;2.80;;
34711;SDS011;20941;42.408;25.634;2023-03-31T10:46:45;14.60;;;4.32;;
34711;SDS011;20941;42.408;25.634;2023-03-31T10:49:15;5.68;;;3.38;;
34711;SDS011;20941;42.408;25.634;2023-03-31T10:51:51;5.07;;;3.17;;
34711;SDS011;20941;42.408;25.634;2023-03-31T10:54:17;11.23;;;3.40;;
34711;SDS011;20941;42.408;25.634;2023-03-31T10:56:46;5.13;;;3.03;;
34711;SDS011;20941;42.408;25.634;2023-03-31T11:02:21;13.43;;;3.97;;
34711;SDS011;20941;42.408;25.634;2023-03-31T11:10:01;15.38;;;4.90;;
34711;SDS011;20941;42.408;25.634;2023-03-31T11:15:20;11.43;;;4.18;;
34711;SDS011;20941;42.408;25.634;2023-03-31T11:17:55;10.95;;;4.00;;
34711;SDS011;20941;42.408;25.634;2023-03-31T11:20:37;6.53;;;3.65;;
34711;SDS011;20941;42.408;25.634;2023-03-31T11:23:16;19.48;;;3.95;;
34711;SDS011;20941;42.408;25.634;2023-03-31T11:30:49;7.65;;;3.47;;
34711;SDS011;20941;42.408;25.634;2023-03-31T11:33:21;7.40;;;4.05;;
34711;SDS011;20941;42.408;25.634;2023-03-31T11:43:29;6.55;;;3.85;;
34711;SDS011;20941;42.408;25.634;2023-03-31T11:46:00;11.43;;;3.70;;
34711;SDS011;20941;42.408;25.634;2023-03-31T11:50:56;11.32;;;3.30;;
34711;SDS011;20941;42.408;25.634;2023-03-31T11:53:26;7.15;;;3.33;;
34711;SDS011;20941;42.408;25.634;2023-03-31T11:55:53;6.25;;;3.88;;
34711;SDS011;20941;42.408;25.634;2023-03-31T11:58:20;8.88;;;3.53;;
34711;SDS011;20941;42.408;25.634;2023-03-31T12:00:48;12.98;;;3.50;;
34711;SDS011;20941;42.408;25.634;2023-03-31T12:05:58;7.00;;;3.25;;
34711;SDS011;20941;42.408;25.634;2023-03-31T12:11:01;8.40;;;3.63;;
34711;SDS011;20941;42.408;25.634;2023-03-31T12:13:30;10.02;;;3.72;;
34711;SDS011;20941;42.408;25.634;2023-03-31T12:16:00;6.78;;;4.15;;
34711;SDS011;20941;42.408;25.634;2023-03-31T12:18:29;7.18;;;3.95;;
34711;SDS011;20941;42.408;25.634;2023-03-31T12:20:57;6.55;;;3.70;;
34711;SDS011;20941;42.408;25.634;2023-03-31T12:23:27;13.23;;;4.05;;
34711;SDS011;20941;42.408;25.634;2023-03-31T12:28:18;7.10;;;3.50;;
34711;SDS011;20941;42.408;25.634;2023-03-31T12:30:44;6.55;;;3.60;;
34711;SDS011;20941;42.408;25.634;2023-03-31T12:33:19;12.38;;;4.18;;
34711;SDS011;20941;42.408;25.634;2023-03-31T12:38:21;5.85;;;3.63;;
34711;SDS011;20941;42.408;25.634;2023-03-31T12:40:56;8.27;;;3.75;;
34711;SDS011;20941;42.408;25.634;2023-03-31T12:48:37;6.20;;;3.72;;
34711;SDS011;20941;42.408;25.634;2023-03-31T12:51:42;8.05;;;3.83;;
34711;SDS011;20941;42.408;25.634;2023-03-31T12:56:48;11.30;;;4.13;;
34711;SDS011;20941;42.408;25.634;2023-03-31T13:02:10;6.60;;;3.90;;
34711;SDS011;20941;42.408;25.634;2023-03-31T13:04:25;7.30;;;4.18;;
34711;SDS011;20941;42.408;25.634;2023-03-31T13:06:52;10.02;;;3.85;;
34711;SDS011;20941;42.408;25.634;2023-03-31T13:11:44;5.03;;;3.88;;
34711;SDS011;20941;42.408;25.634;2023-03-31T13:14:13;13.23;;;6.80;;
34711;SDS011;20941;42.408;25.634;2023-03-31T13:16:40;10.05;;;4.40;;
34711;SDS011;20941;42.408;25.634;2023-03-31T13:19:06;11.98;;;4.40;;
34711;SDS011;20941;42.408;25.634;2023-03-31T13:21:35;8.98;;;4.07;;
34711;SDS011;20941;42.408;25.634;2023-03-31T13:24:15;11.32;;;3.95;;
34711;SDS011;20941;42.408;25.634;2023-03-31T13:26:45;7.05;;;4.00;;
34711;SDS011;20941;42.408;25.634;2023-03-31T13:34:23;11.20;;;4.10;;
34711;SDS011;20941;42.408;25.634;2023-03-31T13:36:56;11.20;;;5.65;;
34711;SDS011;20941;42.408;25.634;2023-03-31T13:49:43;8.57;;;4.07;;
34711;SDS011;20941;42.408;25.634;2023-03-31T13:52:11;6.43;;;3.50;;
34711;SDS011;20941;42.408;25.634;2023-03-31T13:54:53;9.35;;;3.97;;
34711;SDS011;20941;42.408;25.634;2023-03-31T14:05:23;7.80;;;3.97;;
34711;SDS011;20941;42.408;25.634;2023-03-31T14:07:52;10.00;;;4.40;;
34711;SDS011;20941;42.408;25.634;2023-03-31T14:10:23;16.05;;;5.38;;
34711;SDS011;20941;42.408;25.634;2023-03-31T14:12:49;8.25;;;4.20;;
34711;SDS011;20941;42.408;25.634;2023-03-31T14:15:17;7.13;;;3.90;;
34711;SDS011;20941;42.408;25.634;2023-03-31T14:17:44;11.70;;;4.55;;
34711;SDS011;20941;42.408;25.634;2023-03-31T14:30:30;12.40;;;4.30;;
34711;SDS011;20941;42.408;25.634;2023-03-31T14:35:48;10.30;;;4.50;;
34711;SDS011;20941;42.408;25.634;2023-03-31T14:40:46;10.07;;;4.30;;
34711;SDS011;20941;42.408;25.634;2023-03-31T14:43:45;10.70;;;3.78;;
34711;SDS011;20941;42.408;25.634;2023-03-31T14:46:04;11.75;;;4.30;;
34711;SDS011;20941;42.408;25.634;2023-03-31T14:48:43;9.02;;;4.53;;
34711;SDS011;20941;42.408;25.634;2023-03-31T14:51:09;5.78;;;3.35;;
34711;SDS011;20941;42.408;25.634;2023-03-31T14:53:35;8.07;;;4.07;;
34711;SDS011;20941;42.408;25.634;2023-03-31T14:56:04;4.15;;;3.28;;
34711;SDS011;20941;42.408;25.634;2023-03-31T14:58:32;5.82;;;3.88;;
34711;SDS011;20941;42.408;25.634;2023-03-31T15:00:58;7.30;;;3.50;;
34711;SDS011;20941;42.408;25.634;2023-03-31T15:03:24;10.52;;;3.55;;
34711;SDS011;20941;42.408;25.634;2023-03-31T15:05:54;10.88;;;3.78;;
34711;SDS011;20941;42.408;25.634;2023-03-31T15:08:20;6.97;;;3.33;;
34711;SDS011;20941;42.408;25.634;2023-03-31T15:10:50;10.25;;;4.05;;
34711;SDS011;20941;42.408;25.634;2023-03-31T15:13:23;3.22;;;2.90;;
34711;SDS011;20941;42.408;25.634;2023-03-31T15:15:50;7.28;;;2.95;;
34711;SDS011;20941;42.408;25.634;2023-03-31T15:18:16;7.50;;;3.25;;
34711;SDS011;20941;42.408;25.634;2023-03-31T15:20:42;11.00;;;3.55;;
34711;SDS011;20941;42.408;25.634;2023-03-31T15:23:21;13.38;;;3.42;;
34711;SDS011;20941;42.408;25.634;2023-03-31T15:25:49;4.80;;;3.28;;
34711;SDS011;20941;42.408;25.634;2023-03-31T15:28:15;6.82;;;3.50;;
34711;SDS011;20941;42.408;25.634;2023-03-31T15:30:41;7.47;;;3.60;;
34711;SDS011;20941;42.408;25.634;2023-03-31T15:33:07;7.38;;;3.28;;
34711;SDS011;20941;42.408;25.634;2023-03-31T15:35:33;7.18;;;3.67;;
34711;SDS011;20941;42.408;25.634;2023-03-31T15:37:59;13.07;;;3.80;;
34711;SDS011;20941;42.408;25.634;2023-03-31T15:40:34;6.53;;;3.90;;
34711;SDS011;20941;42.408;25.634;2023-03-31T15:45:52;8.98;;;3.60;;
34711;SDS011;20941;42.408;25.634;2023-03-31T15:48:19;5.55;;;3.13;;
34711;SDS011;20941;42.408;25.634;2023-03-31T15:50:45;8.60;;;3.50;;
34711;SDS011;20941;42.408;25.634;2023-03-31T15:53:30;7.38;;;3.42;;
34711;SDS011;20941;42.408;25.634;2023-03-31T15:55:56;6.45;;;3.65;;
34711;SDS011;20941;42.408;25.634;2023-03-31T15:58:44;5.82;;;3.20;;
34711;SDS011;20941;42.408;25.634;2023-03-31T16:01:09;12.32;;;4.57;;
34711;SDS011;20941;42.408;25.634;2023-03-31T16:03:36;8.38;;;4.10;;
34711;SDS011;20941;42.408;25.634;2023-03-31T16:06:09;12.00;;;4.00;;
34711;SDS011;20941;42.408;25.634;2023-03-31T16:08:43;14.38;;;4.72;;
34711;SDS011;20941;42.408;25.634;2023-03-31T16:11:13;8.02;;;4.53;;
34711;SDS011;20941;42.408;25.634;2023-03-31T16:13:40;8.98;;;4.03;;
34711;SDS011;20941;42.408;25.634;2023-03-31T16:16:15;8.48;;;3.88;;
34711;SDS011;20941;42.408;25.634;2023-03-31T16:18:48;8.90;;;3.88;;
34711;SDS011;20941;42.408;25.634;2023-03-31T16:21:18;9.07;;;4.30;;
34711;SDS011;20941;42.408;25.634;2023-03-31T16:23:48;9.65;;;4.30;;
34711;SDS011;20941;42.408;25.634;2023-03-31T16:26:18;11.75;;;4.57;;
34711;SDS011;20941;42.408;25.634;2023-03-31T16:28:44;7.25;;;3.90;;
34711;SDS011;20941;42.408;25.634;2023-03-31T16:33:58;15.43;;;5.20;;
34711;SDS011;20941;42.408;25.634;2023-03-31T16:36:24;18.15;;;5.28;;
34711;SDS011;20941;42.408;25.634;2023-03-31T16:38:53;14.48;;;5.25;;
34711;SDS011;20941;42.408;25.634;2023-03-31T16:41:18;13.43;;;4.70;;
34711;SDS011;20941;42.408;25.634;2023-03-31T16:43:45;16.60;;;4.72;;
34711;SDS011;20941;42.408;25.634;2023-03-31T16:46:11;9.23;;;4.32;;
34711;SDS011;20941;42.408;25.634;2023-03-31T16:48:36;18.00;;;4.82;;
34711;SDS011;20941;42.408;25.634;2023-03-31T16:51:02;16.50;;;5.07;;
34711;SDS011;20941;42.408;25.634;2023-03-31T16:53:29;10.32;;;4.45;;
34711;SDS011;20941;42.408;25.634;2023-03-31T16:55:55;11.52;;;5.70;;
34711;SDS011;20941;42.408;25.634;2023-03-31T16:58:21;10.95;;;4.97;;
34711;SDS011;20941;42.408;25.634;2023-03-31T17:00:48;14.10;;;5.18;;
34711;SDS011;20941;42.408;25.634;2023-03-31T17:03:13;21.63;;;6.28;;
34711;SDS011;20941;42.408;25.634;2023-03-31T17:05:41;19.33;;;6.15;;